createdAt,value
2019-02-21T00:01:44.210Z,94426.45
2019-02-21T00:04:12.561Z,94436.95
2019-02-21T00:06:41.126Z,94435.21
2019-02-21T00:09:09.303Z,94434.31
2019-02-21T00:11:38.026Z,94438.94
2019-02-21T00:14:06.600Z,94434.45
2019-02-21T00:16:35.177Z,94435.25
2019-02-21T00:19:03.075Z,94438.41
2019-02-21T00:21:31.225Z,94443.51
2019-02-21T00:23:59.554Z,94443.47
2019-02-21T00:26:28.095Z,94447.23
2019-02-21T00:28:56.808Z,94447.08
2019-02-21T00:31:25.071Z,94453.64
2019-02-21T00:33:53.322Z,94454.79
2019-02-21T00:36:21.440Z,94454.79
2019-02-21T00:38:49.671Z,94458.52
2019-02-21T00:41:17.552Z,94457.63
2019-02-21T00:43:46.181Z,94453.11
2019-02-21T00:46:14.766Z,94449.75
2019-02-21T00:48:43.266Z,94452.22
2019-02-21T00:51:11.858Z,94454.13
2019-02-21T00:53:40.012Z,94451.86
2019-02-21T00:56:07.605Z,94455.53
2019-02-21T00:58:35.768Z,94461.52
2019-02-21T01:01:03.642Z,94454.96
2019-02-21T01:03:31.812Z,94461.04
2019-02-21T01:05:59.778Z,94451.73
2019-02-21T01:08:27.588Z,94459.98
2019-02-21T01:10:55.811Z,94447.09
2019-02-21T01:13:24.031Z,94454.69
2019-02-21T01:15:51.993Z,94463.36
2019-02-21T01:18:20.612Z,94459.05
2019-02-21T01:20:48.776Z,94465.61
2019-02-21T01:23:16.724Z,94460.40
2019-02-21T01:25:44.927Z,94464.66
2019-02-21T01:28:13.210Z,94461.34
2019-02-21T01:30:41.495Z,94457.92
2019-02-21T01:33:10.108Z,94455.25
2019-02-21T01:35:38.554Z,94453.44
2019-02-21T01:38:07.153Z,94448.85
2019-02-21T01:40:35.736Z,94456.85
2019-02-21T01:43:04.010Z,94452.97
2019-02-21T01:45:32.235Z,94457.53
2019-02-21T01:48:00.916Z,94450.55
2019-02-21T01:50:41.341Z,94463.88
2019-02-21T01:53:09.763Z,94458.60
2019-02-21T01:55:38.270Z,94459.48
2019-02-21T01:58:06.832Z,94456.44
2019-02-21T02:00:35.341Z,94463.92
2019-02-21T02:03:03.894Z,94455.42
2019-02-21T02:05:32.412Z,94456.98
2019-02-21T02:08:01.157Z,94458.53
2019-02-21T02:11:11.029Z,94455.05
2019-02-21T02:13:39.281Z,94451.28
2019-02-21T02:16:07.871Z,94459.62
2019-02-21T02:18:36.227Z,94455.96
2019-02-21T02:21:44.655Z,94448.94
2019-02-21T02:24:14.759Z,94449.72
2019-02-21T02:26:53.207Z,94445.70
2019-02-21T02:29:21.696Z,94445.52
2019-02-21T02:31:50.276Z,94453.84
2019-02-21T02:34:17.766Z,94455.12
2019-02-21T02:36:45.608Z,94461.27
2019-02-21T02:39:14.107Z,94458.59
2019-02-21T02:41:42.317Z,94456.14
2019-02-21T02:44:10.768Z,94453.19
2019-02-21T02:46:39.348Z,94457.52
2019-02-21T02:49:07.553Z,94455.23
2019-02-21T02:51:36.008Z,94462.25
2019-02-21T02:54:03.887Z,94463.09
2019-02-21T02:56:31.760Z,94467.30
2019-02-21T02:58:59.923Z,94466.70
2019-02-21T03:01:34.846Z,94463.62
2019-02-21T03:04:04.890Z,94470.59
2019-02-21T03:06:33.421Z,94469.93
2019-02-21T03:09:01.280Z,94465.88
2019-02-21T03:11:29.729Z,94466.05
2019-02-21T03:13:57.255Z,94466.94
2019-02-21T03:16:25.473Z,94464.97
2019-02-21T03:18:53.389Z,94471.44
2019-02-21T03:21:21.675Z,94472.27
2019-02-21T03:23:50.357Z,94472.33
2019-02-21T03:26:19.022Z,94470.11
2019-02-21T03:28:47.445Z,94470.11
2019-02-21T03:31:15.677Z,94468.80
2019-02-21T03:33:44.202Z,94475.37
2019-02-21T03:36:12.456Z,94466.05
2019-02-21T03:38:40.344Z,94465.67
2019-02-21T03:41:08.126Z,94468.31
2019-02-21T03:43:36.071Z,94473.36
2019-02-21T03:46:04.352Z,94475.29
2019-02-21T03:48:31.932Z,94474.91
2019-02-21T03:50:59.793Z,94490.13
2019-02-21T03:53:28.413Z,94495.36
2019-02-21T03:55:56.297Z,94494.42
2019-02-21T03:58:24.436Z,94499.67
2019-02-21T04:00:53.130Z,94496.16
2019-02-21T04:03:21.812Z,94492.75
2019-02-21T04:05:49.601Z,94491.21
2019-02-21T04:08:17.551Z,94496.77
2019-02-21T04:10:45.426Z,94499.97
2019-02-21T04:13:15.260Z,94493.20
2019-02-21T04:15:44.149Z,94501.33
2019-02-21T04:18:12.465Z,94493.91
2019-02-21T04:20:40.734Z,94493.00
2019-02-21T04:23:08.669Z,94491.48
2019-02-21T04:25:36.579Z,94489.45
2019-02-21T04:28:04.077Z,94490.64
2019-02-21T04:30:32.277Z,94485.88
2019-02-21T04:33:00.480Z,94487.42
2019-02-21T04:35:29.074Z,94490.63
2019-02-21T04:37:57.591Z,94488.55
2019-02-21T04:40:26.257Z,94483.74
2019-02-21T04:42:54.731Z,94486.47
2019-02-21T04:45:23.013Z,94481.34
2019-02-21T04:47:51.507Z,94483.84
2019-02-21T04:50:20.197Z,94473.39
2019-02-21T04:52:48.477Z,94477.44
2019-02-21T04:55:16.681Z,94474.92
2019-02-21T04:57:44.600Z,94481.27
2019-02-21T05:00:12.988Z,94484.77
2019-02-21T05:02:41.103Z,94490.20
2019-02-21T05:05:09.273Z,94488.75
2019-02-21T05:07:37.772Z,94492.94
2019-02-21T05:10:06.151Z,94493.08
2019-02-21T05:12:34.332Z,94494.01
2019-02-21T05:15:02.205Z,94494.06
2019-02-21T05:17:30.785Z,94496.86
2019-02-21T05:19:59.080Z,94497.13
2019-02-21T05:22:27.661Z,94505.41
2019-02-21T05:24:55.886Z,94507.13
2019-02-21T05:27:43.170Z,94502.94
2019-02-21T05:30:25.339Z,94505.94
2019-02-21T05:33:13.038Z,94508.20
2019-02-21T05:36:00.527Z,94502.95
2019-02-21T05:39:09.162Z,94503.45
2019-02-21T05:41:48.176Z,94504.05
2019-02-21T05:44:35.835Z,94507.20
2019-02-21T05:47:19.681Z,94511.95
2019-02-21T05:50:07.399Z,94512.23
2019-02-21T05:53:16.038Z,94515.02
2019-02-21T05:56:03.444Z,94513.34
2019-02-21T05:58:50.891Z,94513.33
2019-02-21T06:04:31.710Z,94512.75
2019-02-21T06:07:19.463Z,94516.03
2019-02-21T06:10:21.640Z,94513.43
2019-02-21T06:13:09.334Z,94517.55
2019-02-21T06:18:46.335Z,94525.77
2019-02-21T06:21:33.799Z,94529.17
2019-02-21T06:24:21.539Z,94532.09
2019-02-21T06:27:08.983Z,94520.42
2019-02-21T06:30:02.518Z,94525.51
2019-02-21T06:33:11.131Z,94526.50
2019-02-21T06:39:00.201Z,94518.88
2019-02-21T06:41:29.949Z,94519.17
2019-02-21T06:44:08.046Z,94522.02
2019-02-21T06:46:36.245Z,94529.57
2019-02-21T06:49:04.584Z,94529.57
2019-02-21T06:51:32.054Z,94535.72
2019-02-21T06:53:59.994Z,94532.38
2019-02-21T06:56:27.964Z,94540.55
2019-02-21T06:58:55.855Z,94541.19
2019-02-21T07:01:29.094Z,94542.09
2019-02-21T07:04:03.792Z,94542.64
2019-02-21T07:06:32.423Z,94546.28
2019-02-21T07:09:07.125Z,94549.14
2019-02-21T07:11:35.554Z,94544.20
2019-02-21T07:14:03.796Z,94548.52
2019-02-21T07:16:32.400Z,94554.24
2019-02-21T07:19:00.982Z,94557.63
2019-02-21T07:21:29.556Z,94559.66
2019-02-21T07:23:57.932Z,94565.11
2019-02-21T07:26:26.452Z,94560.08
2019-02-21T07:28:55.318Z,94565.36
2019-02-21T07:31:28.638Z,94566.29
2019-02-21T07:34:03.386Z,94571.23
2019-02-21T07:36:31.577Z,94570.77
2019-02-21T07:39:13.791Z,94567.83
2019-02-21T07:41:37.021Z,94571.27
2019-02-21T07:44:12.075Z,94576.14
2019-02-21T07:46:42.878Z,94578.77
2019-02-21T07:49:11.659Z,94580.58
2019-02-21T07:51:41.490Z,94582.92
2019-02-21T07:54:16.415Z,94586.23
2019-02-21T07:56:44.733Z,94584.30
2019-02-21T07:59:24.965Z,94589.94
2019-02-21T08:05:14.109Z,94592.17
2019-02-21T08:08:22.388Z,94591.70
2019-02-21T08:10:51.111Z,94591.06
2019-02-21T08:13:59.019Z,94586.14
2019-02-21T08:16:58.682Z,94578.67
2019-02-21T08:19:45.928Z,94584.73
2019-02-21T08:22:14.600Z,94583.40
2019-02-21T08:27:23.138Z,94585.70
2019-02-21T08:29:51.042Z,94584.38
2019-02-21T08:35:01.674Z,94573.06
2019-02-21T08:38:11.997Z,94568.77
2019-02-21T08:40:45.934Z,94567.24
2019-02-21T08:43:13.804Z,94572.84
2019-02-21T08:45:42.325Z,94571.23
2019-02-21T08:48:13.382Z,94566.63
2019-02-21T08:50:41.417Z,94568.81
2019-02-21T08:53:09.638Z,94568.08
2019-02-21T08:55:40.368Z,94577.95
2019-02-21T08:58:17.727Z,94581.93
2019-02-21T09:01:05.244Z,94576.23
2019-02-21T09:03:33.839Z,94572.55
2019-02-21T09:06:01.767Z,94574.84
2019-02-21T09:08:33.710Z,94568.23
2019-02-21T09:11:06.474Z,94576.02
2019-02-21T09:13:34.473Z,94577.37
2019-02-21T09:16:02.465Z,94577.47
2019-02-21T09:18:30.793Z,94574.17
2019-02-21T09:20:58.679Z,94570.86
2019-02-21T09:23:27.209Z,94572.16
2019-02-21T09:25:54.791Z,94573.84
2019-02-21T09:28:23.119Z,94568.70
2019-02-21T09:30:50.647Z,94568.30
2019-02-21T09:33:21.394Z,94571.70
2019-02-21T09:35:49.474Z,94580.11
2019-02-21T09:38:17.353Z,94573.17
2019-02-21T09:40:45.911Z,94574.72
2019-02-21T09:43:14.615Z,94571.11
2019-02-21T09:45:43.250Z,94569.16
2019-02-21T09:48:12.105Z,94571.50
2019-02-21T09:50:47.779Z,94560.83
2019-02-21T09:53:15.940Z,94563.98
2019-02-21T09:55:43.598Z,94560.74
2019-02-21T09:58:12.196Z,94561.37
2019-02-21T10:00:40.505Z,94563.80
2019-02-21T10:03:08.694Z,94560.48
2019-02-21T10:05:36.949Z,94558.38
2019-02-21T10:08:04.832Z,94555.69
2019-02-21T10:10:33.416Z,94550.83
2019-02-21T10:13:02.000Z,94554.11
2019-02-21T10:15:31.507Z,94568.19
2019-02-21T10:17:59.954Z,94565.36
2019-02-21T10:20:28.238Z,94567.99
2019-02-21T10:22:56.804Z,94566.06
2019-02-21T10:25:26.144Z,94562.14
2019-02-21T10:27:54.249Z,94564.54
2019-02-21T10:30:23.046Z,94562.76
2019-02-21T10:32:50.828Z,94557.58
2019-02-21T10:35:19.416Z,94559.44
2019-02-21T10:37:47.652Z,94555.02
2019-02-21T10:40:16.080Z,94550.08
2019-02-21T10:42:44.659Z,94546.59
2019-02-21T10:45:14.858Z,94542.77
2019-02-21T10:47:42.561Z,94546.34
2019-02-21T10:50:14.281Z,94545.48
2019-02-21T10:52:50.884Z,94539.63
2019-02-21T10:55:19.109Z,94543.98
2019-02-21T10:57:47.324Z,94537.14
2019-02-21T11:00:35.654Z,94537.64
2019-02-21T11:03:04.218Z,94537.03
2019-02-21T11:05:32.467Z,94538.05
2019-02-21T11:08:12.471Z,94519.70
2019-02-21T11:10:40.695Z,94519.70
2019-02-21T11:13:08.661Z,94521.81
2019-02-21T11:15:37.263Z,94519.63
2019-02-21T11:18:05.641Z,94511.36
2019-02-21T11:20:33.918Z,94515.63
2019-02-21T11:23:02.516Z,94517.38
2019-02-21T11:25:31.088Z,94512.11
2019-02-21T11:27:59.687Z,94508.80
2019-02-21T11:30:28.009Z,94507.02
2019-02-21T11:32:56.477Z,94506.39
2019-02-21T11:35:25.147Z,94501.71
2019-02-21T11:37:53.683Z,94501.02
2019-02-21T11:40:21.658Z,94497.40
2019-02-21T11:42:50.315Z,94504.93
2019-02-21T11:45:18.501Z,94511.42
2019-02-21T11:47:46.993Z,94509.36
2019-02-21T11:50:16.182Z,94514.12
2019-02-21T11:52:44.441Z,94510.14
2019-02-21T11:55:14.475Z,94506.08
2019-02-21T11:57:42.655Z,94503.38
2019-02-21T12:00:14.007Z,94500.66
2019-02-21T12:02:42.612Z,94500.56
2019-02-21T12:05:17.548Z,94505.17
2019-02-21T12:07:47.557Z,94499.48
2019-02-21T12:10:15.525Z,94504.45
2019-02-21T12:12:55.703Z,94493.97
2019-02-21T12:15:24.250Z,94497.28
2019-02-21T12:17:52.447Z,94494.77
2019-02-21T12:20:20.820Z,94491.60
2019-02-21T12:22:49.011Z,94488.31
2019-02-21T12:25:17.660Z,94486.64
2019-02-21T12:27:46.219Z,94484.19
2019-02-21T12:30:36.376Z,94478.67
2019-02-21T12:33:04.640Z,94474.91
2019-02-21T12:35:33.170Z,94477.72
2019-02-21T12:38:00.701Z,94485.63
2019-02-21T12:40:29.290Z,94491.91
2019-02-21T12:42:57.818Z,94488.52
2019-02-21T12:45:25.345Z,94495.77
2019-02-21T12:47:54.117Z,94495.45
2019-02-21T12:50:29.989Z,94496.38
2019-02-21T12:52:58.625Z,94493.69
2019-02-21T12:55:31.453Z,94497.45
2019-02-21T12:57:57.105Z,94499.81
2019-02-21T13:00:25.643Z,94495.80
2019-02-21T13:02:53.984Z,94483.84
2019-02-21T13:05:22.711Z,94479.08
2019-02-21T13:07:50.946Z,94475.59
2019-02-21T13:10:19.516Z,94476.33
2019-02-21T13:12:48.111Z,94474.84
2019-02-21T13:15:16.368Z,94471.21
2019-02-21T13:17:44.644Z,94473.82
2019-02-21T13:20:12.160Z,94470.75
2019-02-21T13:22:40.115Z,94465.98
2019-02-21T13:25:48.548Z,94472.82
2019-02-21T13:28:16.757Z,94467.91
2019-02-21T13:30:44.971Z,94469.07
2019-02-21T13:36:15.501Z,94478.30
2019-02-21T13:38:43.489Z,94475.53
2019-02-21T13:41:11.305Z,94467.46
2019-02-21T13:43:39.159Z,94460.63
2019-02-21T13:46:07.725Z,94460.16
2019-02-21T13:48:36.000Z,94455.20
2019-02-21T13:51:04.290Z,94455.55
2019-02-21T13:53:32.160Z,94451.44
2019-02-21T13:56:00.743Z,94458.28
2019-02-21T13:58:29.029Z,94454.08
2019-02-21T14:00:57.310Z,94451.45
2019-02-21T14:03:25.569Z,94453.99
2019-02-21T14:06:03.221Z,94448.87
2019-02-21T14:08:31.180Z,94448.45
2019-02-21T14:10:59.775Z,94446.83
2019-02-21T14:13:28.341Z,94447.78
2019-02-21T14:15:56.679Z,94451.30
2019-02-21T14:18:25.255Z,94447.09
2019-02-21T14:20:53.905Z,94441.38
2019-02-21T14:23:22.487Z,94441.16
2019-02-21T14:25:50.715Z,94445.73
2019-02-21T14:28:19.015Z,94441.13
2019-02-21T14:30:47.342Z,94442.25
2019-02-21T14:33:17.496Z,94446.70
2019-02-21T14:35:51.961Z,94440.05
2019-02-21T14:38:27.764Z,94432.05
2019-02-21T14:40:50.852Z,94433.81
2019-02-21T14:43:19.093Z,94435.94
2019-02-21T14:45:47.364Z,94437.87
2019-02-21T14:48:15.541Z,94435.03
2019-02-21T14:50:44.160Z,94432.84
2019-02-21T14:53:12.724Z,94432.73
2019-02-21T14:55:41.330Z,94432.03
2019-02-21T14:58:09.237Z,94431.56
2019-02-21T15:01:17.773Z,94435.66
2019-02-21T15:03:45.661Z,94438.67
2019-02-21T15:06:13.881Z,94434.20
2019-02-21T15:08:42.565Z,94441.30
2019-02-21T15:11:11.323Z,94451.06
2019-02-21T15:13:39.826Z,94455.82
2019-02-21T15:16:08.410Z,94464.67
2019-02-21T15:18:37.024Z,94463.65
2019-02-21T15:21:05.230Z,94465.80
2019-02-21T15:23:33.377Z,94463.07
2019-02-21T15:26:01.936Z,94466.33
2019-02-21T15:28:30.443Z,94474.34
2019-02-21T15:30:58.710Z,94479.19
2019-02-21T15:33:27.335Z,94480.19
2019-02-21T15:35:54.869Z,94485.80
2019-02-21T15:38:22.875Z,94489.44
2019-02-21T15:40:50.965Z,94495.84
2019-02-21T15:43:18.916Z,94494.19
2019-02-21T15:45:47.101Z,94496.32
2019-02-21T15:48:15.241Z,94494.55
2019-02-21T15:50:43.131Z,94501.75
2019-02-21T15:53:11.650Z,94504.24
2019-02-21T15:55:39.570Z,94494.58
2019-02-21T15:58:08.305Z,94494.18
2019-02-21T16:00:36.870Z,94502.25
2019-02-21T16:03:05.397Z,94502.38
2019-02-21T16:05:33.280Z,94503.20
2019-02-21T16:08:01.600Z,94499.88
2019-02-21T16:10:29.902Z,94501.89
2019-02-21T16:12:58.811Z,94508.63
2019-02-21T16:15:27.180Z,94512.64
2019-02-21T16:17:55.890Z,94514.11
2019-02-21T16:20:24.237Z,94518.13
2019-02-21T16:22:52.549Z,94514.84
2019-02-21T16:25:21.038Z,94519.33
2019-02-21T16:27:48.604Z,94516.47
2019-02-21T16:30:16.811Z,94522.22
2019-02-21T16:32:45.103Z,94531.31
2019-02-21T16:35:13.084Z,94531.09
2019-02-21T16:37:41.417Z,94532.94
2019-02-21T16:40:10.907Z,94529.63
2019-02-21T16:42:38.440Z,94539.98
2019-02-21T16:45:07.915Z,94544.37
2019-02-21T16:47:36.072Z,94548.39
2019-02-21T16:50:04.522Z,94551.06
2019-02-21T16:52:32.931Z,94549.09
2019-02-21T16:55:01.555Z,94552.22
2019-02-21T16:57:29.809Z,94555.38
2019-02-21T16:59:58.337Z,94559.82
2019-02-21T17:02:27.020Z,94556.19
2019-02-21T17:04:55.927Z,94560.23
2019-02-21T17:07:24.199Z,94561.23
2019-02-21T17:09:52.449Z,94563.90
2019-02-21T17:12:20.715Z,94564.91
2019-02-21T17:14:49.379Z,94562.04
2019-02-21T17:17:17.602Z,94565.94
2019-02-21T17:19:45.876Z,94566.44
2019-02-21T17:22:14.571Z,94561.02
2019-02-21T17:24:42.947Z,94570.77
2019-02-21T17:27:11.321Z,94578.45
2019-02-21T17:29:39.588Z,94584.84
2019-02-21T17:32:08.278Z,94590.36
2019-02-21T17:34:36.905Z,94588.67
2019-02-21T17:37:05.620Z,94587.42
2019-02-21T17:39:33.934Z,94583.60
2019-02-21T17:42:02.692Z,94592.08
2019-02-21T17:44:31.875Z,94597.13
2019-02-21T17:47:07.322Z,94592.46
2019-02-21T17:49:35.192Z,94607.69
2019-02-21T17:52:03.171Z,94608.95
2019-02-21T17:54:31.757Z,94610.63
2019-02-21T17:57:00.341Z,94617.37
2019-02-21T17:59:40.245Z,94619.91
2019-02-21T18:02:08.980Z,94623.69
2019-02-21T18:04:37.267Z,94630.01
2019-02-21T18:07:05.901Z,94630.00
2019-02-21T18:09:34.272Z,94629.97
2019-02-21T18:12:02.549Z,94637.58
2019-02-21T18:14:31.203Z,94642.64
2019-02-21T18:16:59.165Z,94637.97
2019-02-21T18:19:27.147Z,94634.14
2019-02-21T18:21:55.683Z,94638.34
2019-02-21T18:24:23.862Z,94635.76
2019-02-21T18:26:52.112Z,94633.62
2019-02-21T18:29:21.159Z,94637.83
2019-02-21T18:31:49.704Z,94635.27
2019-02-21T18:34:18.377Z,94639.47
2019-02-21T18:36:46.923Z,94646.66
2019-02-21T18:42:16.297Z,94645.73
2019-02-21T18:44:44.188Z,94646.95
2019-02-21T18:47:12.566Z,94651.19
2019-02-21T18:49:41.203Z,94646.14
2019-02-21T18:52:09.686Z,94653.73
2019-02-21T18:54:37.664Z,94649.54
2019-02-21T18:57:05.926Z,94648.67
2019-02-21T19:00:14.515Z,94654.19
2019-02-21T19:02:42.666Z,94653.84
2019-02-21T19:05:11.031Z,94650.08
2019-02-21T19:07:39.373Z,94646.75
2019-02-21T19:10:09.326Z,94655.27
2019-02-21T19:12:38.146Z,94654.45
2019-02-21T19:15:07.132Z,94656.60
2019-02-21T19:17:35.417Z,94654.47
2019-02-21T19:20:03.889Z,94655.77
2019-02-21T19:22:32.148Z,94661.68
2019-02-21T19:25:00.582Z,94650.22
2019-02-21T19:27:36.861Z,94655.30
2019-02-21T19:30:09.171Z,94659.06
2019-02-21T19:32:37.551Z,94651.46
2019-02-21T19:35:05.827Z,94649.34
2019-02-21T19:37:34.101Z,94657.37
2019-02-21T19:40:02.107Z,94661.19
2019-02-21T19:42:29.915Z,94670.50
2019-02-21T19:44:58.503Z,94674.23
2019-02-21T19:47:26.593Z,94680.96
2019-02-21T19:49:54.925Z,94678.42
2019-02-21T19:52:23.237Z,94680.52
2019-02-21T19:54:51.887Z,94675.89
2019-02-21T19:57:19.896Z,94678.84
2019-02-21T19:59:48.550Z,94677.64
2019-02-21T20:02:16.778Z,94678.51
2019-02-21T20:04:45.055Z,94679.83
2019-02-21T20:07:13.350Z,94679.84
2019-02-21T20:09:41.665Z,94678.63
2019-02-21T20:12:10.075Z,94682.45
2019-02-21T20:14:38.572Z,94686.25
2019-02-21T20:17:06.791Z,94682.93
2019-02-21T20:19:35.161Z,94679.58
2019-02-21T20:22:03.502Z,94683.36
2019-02-21T20:24:31.562Z,94684.62
2019-02-21T20:27:00.415Z,94680.36
2019-02-21T20:29:29.388Z,94685.00
2019-02-21T20:31:58.423Z,94675.28
2019-02-21T20:34:26.299Z,94679.53
2019-02-21T20:36:54.985Z,94676.52
2019-02-21T20:39:23.026Z,94678.20
2019-02-21T20:41:51.341Z,94670.98
2019-02-21T20:44:19.958Z,94676.55
2019-02-21T20:46:48.875Z,94676.11
2019-02-21T20:51:59.307Z,94683.30
2019-02-21T20:54:27.261Z,94682.45
2019-02-21T20:56:55.566Z,94685.83
2019-02-21T20:59:23.517Z,94687.09
2019-02-21T21:01:51.555Z,94682.81
2019-02-21T21:04:19.902Z,94689.14
2019-02-21T21:06:48.695Z,94688.69
2019-02-21T21:09:16.972Z,94689.09
2019-02-21T21:11:44.855Z,94694.17
2019-02-21T21:14:21.524Z,94693.70
2019-02-21T21:16:50.215Z,94695.38
2019-02-21T21:19:18.697Z,94694.53
2019-02-21T21:21:47.197Z,94699.59
2019-02-21T21:24:15.147Z,94699.94
2019-02-21T21:26:43.725Z,94702.46
2019-02-21T21:32:14.624Z,94707.03
2019-02-21T21:34:43.564Z,94704.90
2019-02-21T21:40:32.666Z,94710.74
2019-02-21T21:46:10.525Z,94717.89
2019-02-21T21:48:39.332Z,94714.48
2019-02-21T21:51:07.571Z,94709.37
2019-02-21T21:53:35.472Z,94719.50
2019-02-21T21:56:03.742Z,94719.50
2019-02-21T21:58:32.089Z,94717.30
2019-02-21T22:01:00.371Z,94718.21
2019-02-21T22:03:28.646Z,94718.21
2019-02-21T22:06:16.221Z,94722.83
2019-02-21T22:08:44.442Z,94725.81
2019-02-21T22:11:12.474Z,94724.09
2019-02-21T22:13:40.609Z,94732.63
2019-02-21T22:16:08.533Z,94733.08
2019-02-21T22:19:17.206Z,94730.20
2019-02-21T22:21:45.559Z,94725.61
2019-02-21T22:24:13.846Z,94733.27
2019-02-21T22:26:42.453Z,94732.00
2019-02-21T22:29:10.807Z,94731.58
2019-02-21T22:31:39.407Z,94731.11
2019-02-21T22:34:07.928Z,94728.12
2019-02-21T22:36:35.872Z,94736.14
2019-02-21T22:39:03.826Z,94735.33
2019-02-21T22:41:32.456Z,94736.20
2019-02-21T22:44:00.754Z,94742.14
2019-02-21T22:46:29.090Z,94745.12
2019-02-21T22:48:57.272Z,94740.92
2019-02-21T22:51:25.152Z,94742.21
2019-02-21T22:53:53.334Z,94740.58
2019-02-21T22:56:21.196Z,94748.19
2019-02-21T22:58:49.005Z,94739.77
2019-02-21T23:01:38.047Z,94743.13
2019-02-21T23:04:44.122Z,94746.11
2019-02-21T23:07:33.489Z,94743.59
2019-02-21T23:10:13.348Z,94750.83
2019-02-21T23:12:41.576Z,94752.97
2019-02-21T23:15:10.259Z,94752.17
2019-02-21T23:17:38.426Z,94750.94
2019-02-21T23:23:08.568Z,94765.06
2019-02-21T23:25:36.833Z,94764.72
2019-02-21T23:28:05.431Z,94767.30
2019-02-21T23:30:33.721Z,94768.19
2019-02-21T23:33:01.955Z,94765.22
2019-02-21T23:36:10.543Z,94771.98
2019-02-21T23:38:39.091Z,94771.16
2019-02-21T23:41:07.677Z,94774.21
2019-02-21T23:43:35.562Z,94770.51
2019-02-21T23:46:03.842Z,94771.80
2019-02-21T23:48:32.036Z,94767.13
2019-02-21T23:50:59.841Z,94767.98
2019-02-21T23:53:28.581Z,94762.89
2019-02-21T23:55:57.297Z,94758.23
2019-02-21T23:58:25.537Z,94759.09
